Time;durP1;ratioP1;P1;durP2;ratioP2;P2;SDS_P1;SDS_P2;PMS_P1;PMS_P2;Temp;Humidity;BMP_temperature;BMP_pressure;BME280_temperature;BME280_humidity;BME280_pressure;Samples;Min_cycle;Max_cycle;Signal;HPM_P1;HPM_P2
2023/02/07 00:03:46;;;;;;;28.40;14.70;;;;;-0.70;103333.00;;;;10011935;29;20638;-79
2023/02/07 00:08:48;;;;;;;23.23;13.30;;;;;-0.60;103332.00;;;;9979941;29;20204;-78
2023/02/07 00:13:53;;;;;;;30.80;12.83;;;;;-0.60;103334.00;;;;10041785;29;20215;-78
2023/02/07 00:18:55;;;;;;;20.83;11.20;;;;;-0.70;103329.00;;;;10082057;29;20679;-78
2023/02/07 00:24:00;;;;;;;22.77;12.00;;;;;-0.80;103310.00;;;;9987114;29;20532;-78
2023/02/07 00:29:03;;;;;;;25.03;10.63;;;;;-0.90;103309.00;;;;10040839;29;20524;-78
2023/02/07 00:34:07;;;;;;;16.17;10.60;;;;;-1.00;103318.00;;;;10010697;29;20203;-78
2023/02/07 00:39:14;;;;;;;18.20;11.03;;;;;-1.10;103308.00;;;;10008485;29;20217;-78
2023/02/07 00:44:15;;;;;;;21.13;12.10;;;;;-1.10;103314.00;;;;10005549;29;20190;-78
2023/02/07 00:49:19;;;;;;;25.07;11.50;;;;;-1.20;103297.00;;;;10042828;29;20193;-78
2023/02/07 00:54:21;;;;;;;21.67;11.53;;;;;-1.20;103301.00;;;;10030594;29;20204;-78
2023/02/07 00:59:26;;;;;;;23.63;11.53;;;;;-1.30;103309.00;;;;10010287;29;20244;-79
2023/02/07 01:04:28;;;;;;;25.63;12.00;;;;;-1.30;103304.00;;;;9994197;29;20220;-78
2023/02/07 01:09:30;;;;;;;27.90;11.43;;;;;-1.40;103313.00;;;;9979903;29;20235;-78
2023/02/07 01:14:32;;;;;;;26.83;12.33;;;;;-1.40;103287.00;;;;10027842;29;20217;-78
2023/02/07 01:19:35;;;;;;;21.87;11.60;;;;;-1.50;103311.00;;;;10022421;29;20335;-78
2023/02/07 01:24:37;;;;;;;24.00;12.03;;;;;-1.50;103288.00;;;;10066008;29;20659;-79
2023/02/07 01:29:40;;;;;;;23.27;11.90;;;;;-1.60;103301.00;;;;10036878;29;20233;-78
2023/02/07 01:34:42;;;;;;;28.87;15.10;;;;;-1.60;103302.00;;;;10037787;29;20204;-78
2023/02/07 01:39:45;;;;;;;36.13;16.47;;;;;-1.50;103293.00;;;;10084591;29;20272;-78
2023/02/07 01:44:47;;;;;;;31.67;14.33;;;;;-1.30;103308.00;;;;10042811;29;20204;-78
2023/02/07 01:49:54;;;;;;;27.90;13.00;;;;;-1.30;103313.00;;;;10030997;29;20295;-78
2023/02/07 01:55:05;;;;;;;23.53;13.17;;;;;-1.40;103311.00;;;;10028146;29;20201;-78
2023/02/07 02:00:13;;;;;;;29.27;14.13;;;;;-1.50;103313.00;;;;10001135;29;20223;-78
2023/02/07 02:05:18;;;;;;;30.67;13.20;;;;;-1.60;103292.00;;;;10024535;29;20204;-78
2023/02/07 02:10:23;;;;;;;32.47;13.67;;;;;-1.50;103282.00;;;;10027542;29;20204;-78
2023/02/07 02:15:42;;;;;;;31.07;12.53;;;;;-1.60;103283.00;;;;10042950;29;20231;-78
2023/02/07 02:21:03;;;;;;;27.07;12.27;;;;;-1.60;103270.00;;;;10027918;29;20276;-78
2023/02/07 02:26:38;;;;;;;32.30;12.10;;;;;-1.70;103278.00;;;;10027143;29;20244;-78
2023/02/07 02:32:07;;;;;;;23.50;12.17;;;;;-1.80;103290.00;;;;10026472;29;20209;-78
2023/02/07 02:37:30;;;;;;;31.40;12.77;;;;;-1.80;103288.00;;;;10042485;29;20233;-78
2023/02/07 02:42:44;;;;;;;22.07;11.37;;;;;-1.90;103276.00;;;;10041303;29;20273;-78
2023/02/07 02:47:48;;;;;;;30.20;12.70;;;;;-1.80;103269.00;;;;10042584;29;20177;-78
2023/02/07 02:52:51;;;;;;;34.10;12.67;;;;;-1.80;103269.00;;;;10058095;29;20201;-78
2023/02/07 02:58:37;;;;;;;23.77;13.10;;;;;-1.80;103269.00;;;;9998680;29;20235;-78
2023/02/07 03:04:07;;;;;;;31.97;13.03;;;;;-1.80;103258.00;;;;10009440;29;20205;-78
2023/02/07 03:09:28;;;;;;;25.43;11.30;;;;;-1.80;103248.00;;;;10024782;29;20696;-78
2023/02/07 03:14:43;;;;;;;23.13;12.60;;;;;-1.60;103269.00;;;;10040399;29;20253;-78
2023/02/07 03:19:54;;;;;;;24.63;13.13;;;;;-1.40;103261.00;;;;10047666;29;20211;-78
2023/02/07 03:24:58;;;;;;;24.57;11.33;;;;;-1.30;103261.00;;;;10085369;29;20225;-78
2023/02/07 03:30:09;;;;;;;20.20;10.20;;;;;-1.20;103263.00;;;;10071661;29;20228;-78
2023/02/07 03:35:18;;;;;;;21.60;11.30;;;;;-1.20;103249.00;;;;10065581;29;20211;-78
2023/02/07 03:40:21;;;;;;;26.63;10.97;;;;;-1.20;103246.00;;;;10037076;29;20580;-78
2023/02/07 03:45:24;;;;;;;20.53;10.93;;;;;-1.20;103256.00;;;;9999804;29;20300;-78
2023/02/07 03:50:26;;;;;;;17.90;11.23;;;;;-1.10;103259.00;;;;10030880;29;20196;-78
2023/02/07 03:55:28;;;;;;;16.97;9.93;;;;;-1.10;103253.00;;;;10065494;29;20612;-78
2023/02/07 04:00:30;;;;;;;21.80;10.77;;;;;-1.20;103257.00;;;;10006722;29;20259;-78
2023/02/07 04:05:31;;;;;;;15.70;10.13;;;;;-1.20;103254.00;;;;9997765;29;20862;-78
2023/02/07 04:10:33;;;;;;;18.63;10.40;;;;;-1.30;103259.00;;;;10045626;29;20201;-78
2023/02/07 04:15:35;;;;;;;19.20;10.13;;;;;-1.40;103255.00;;;;10046095;29;20213;-78
2023/02/07 04:20:38;;;;;;;26.00;10.80;;;;;-1.40;103247.00;;;;10046463;29;20214;-78
2023/02/07 04:25:39;;;;;;;20.10;11.83;;;;;-1.30;103250.00;;;;10002184;29;20288;-78
2023/02/07 04:30:41;;;;;;;22.93;10.30;;;;;-1.20;103254.00;;;;9991716;29;20710;-78
2023/02/07 04:35:43;;;;;;;23.37;10.63;;;;;-1.20;103263.00;;;;10043829;29;20201;-78
2023/02/07 04:40:45;;;;;;;28.17;10.87;;;;;-1.20;103255.00;;;;10045609;29;20220;-79
2023/02/07 04:45:47;;;;;;;21.67;10.93;;;;;-1.20;103266.00;;;;10077168;29;20247;-78
2023/02/07 04:50:49;;;;;;;18.83;10.53;;;;;-1.20;103257.00;;;;10067220;29;20248;-78
2023/02/07 04:55:52;;;;;;;19.73;9.80;;;;;-1.30;103254.00;;;;10077771;29;20219;-78
2023/02/07 05:00:54;;;;;;;16.67;9.40;;;;;-1.40;103262.00;;;;10058846;29;20568;-78
2023/02/07 05:05:56;;;;;;;19.10;9.57;;;;;-1.50;103251.00;;;;10028385;29;20260;-78
2023/02/07 05:10:59;;;;;;;18.83;9.37;;;;;-1.60;103267.00;;;;10028430;29;20226;-78
2023/02/07 05:16:03;;;;;;;17.33;9.33;;;;;-1.70;103260.00;;;;10028394;29;20694;-78
2023/02/07 05:21:05;;;;;;;12.13;8.77;;;;;-1.80;103267.00;;;;10058042;29;20201;-78
2023/02/07 05:26:07;;;;;;;14.70;9.13;;;;;-1.90;103277.00;;;;10057813;29;20227;-78
2023/02/07 05:31:09;;;;;;;18.40;9.00;;;;;-1.90;103282.00;;;;10042204;29;20205;-78
2023/02/07 05:36:11;;;;;;;17.23;9.70;;;;;-1.80;103273.00;;;;10042683;29;20229;-78
2023/02/07 05:41:13;;;;;;;21.00;10.70;;;;;-1.90;103286.00;;;;10041112;29;20216;-78
2023/02/07 05:46:15;;;;;;;18.67;10.57;;;;;-2.00;103278.00;;;;10062191;29;20618;-78
2023/02/07 05:51:17;;;;;;;13.80;9.30;;;;;-2.00;103288.00;;;;10026869;29;20268;-78
2023/02/07 05:56:19;;;;;;;19.10;9.27;;;;;-2.10;103288.00;;;;10074450;29;20273;-78
2023/02/07 06:01:21;;;;;;;11.13;8.37;;;;;-2.20;103303.00;;;;10042052;29;20225;-78
2023/02/07 06:06:23;;;;;;;18.23;9.50;;;;;-2.30;103312.00;;;;10067800;29;20243;-78
2023/02/07 06:11:25;;;;;;;14.63;8.77;;;;;-2.40;103319.00;;;;10048939;29;20204;-79
2023/02/07 06:16:27;;;;;;;14.07;9.17;;;;;-2.50;103319.00;;;;10079427;29;20568;-78
2023/02/07 06:21:29;;;;;;;14.67;9.27;;;;;-2.60;103322.00;;;;10048993;29;20228;-78
2023/02/07 06:26:46;;;;;;;19.07;9.40;;;;;-2.70;103322.00;;;;10038658;29;20232;-78
2023/02/07 06:31:48;;;;;;;18.87;9.13;;;;;-2.70;103334.00;;;;10026393;29;20200;-78
2023/02/07 06:36:50;;;;;;;18.03;9.47;;;;;-2.70;103347.00;;;;10025981;29;20260;-78
2023/02/07 06:41:52;;;;;;;14.27;8.93;;;;;-2.70;103342.00;;;;10040895;29;20232;-79
2023/02/07 06:46:54;;;;;;;21.27;10.40;;;;;-2.70;103337.00;;;;10018900;29;20201;-79
2023/02/07 06:51:56;;;;;;;22.47;10.43;;;;;-2.60;103341.00;;;;10042205;29;20216;-78
2023/02/07 06:56:59;;;;;;;19.43;9.93;;;;;-2.60;103348.00;;;;10009100;29;20211;-79
2023/02/07 07:02:02;;;;;;;19.00;9.07;;;;;-2.60;103341.00;;;;10032676;29;20216;-79
2023/02/07 07:07:04;;;;;;;23.27;9.53;;;;;-2.60;103338.00;;;;10032698;29;20568;-79
2023/02/07 07:12:06;;;;;;;22.47;9.90;;;;;-2.60;103346.00;;;;10048385;29;20196;-79
2023/02/07 07:17:08;;;;;;;21.07;9.50;;;;;-2.50;103356.00;;;;10048220;29;20205;-79
2023/02/07 07:22:10;;;;;;;24.57;10.17;;;;;-2.50;103357.00;;;;10033962;29;20273;-79
2023/02/07 07:27:12;;;;;;;15.03;9.27;;;;;-2.60;103352.00;;;;10034204;29;20654;-79
2023/02/07 07:32:15;;;;;;;19.43;10.73;;;;;-2.50;103370.00;;;;10034690;29;20668;-78
2023/02/07 07:37:34;;;;;;;20.43;9.33;;;;;-2.50;103376.00;;;;10037710;29;20208;-78
2023/02/07 07:42:37;;;;;;;28.10;10.33;;;;;-2.40;103369.00;;;;10038509;29;20311;-79
2023/02/07 07:47:52;;;;;;;23.13;9.53;;;;;-2.30;103368.00;;;;10053419;29;20196;-79
2023/02/07 07:52:54;;;;;;;17.80;10.13;;;;;-2.30;103362.00;;;;9986397;29;20236;-79
2023/02/07 07:57:56;;;;;;;13.40;8.53;;;;;-2.20;103370.00;;;;10046679;29;20692;-78
2023/02/07 08:02:58;;;;;;;18.43;9.07;;;;;-2.20;103371.00;;;;10032590;29;20217;-78
2023/02/07 08:08:00;;;;;;;27.13;10.00;;;;;-2.00;103378.00;;;;10034034;29;20263;-79
2023/02/07 08:13:02;;;;;;;17.27;9.53;;;;;-1.90;103388.00;;;;10026469;29;20300;-79
2023/02/07 08:18:05;;;;;;;15.13;9.17;;;;;-1.80;103384.00;;;;10020899;29;20204;-79
2023/02/07 08:23:06;;;;;;;16.80;10.10;;;;;-1.70;103384.00;;;;9998130;29;20213;-78
2023/02/07 08:28:09;;;;;;;17.60;10.13;;;;;-1.50;103387.00;;;;10020553;29;20237;-79
2023/02/07 08:33:11;;;;;;;24.13;11.37;;;;;-1.30;103374.00;;;;10045628;29;20192;-79
2023/02/07 08:38:13;;;;;;;19.77;10.67;;;;;-1.10;103381.00;;;;10030939;29;20232;-78
2023/02/07 08:43:15;;;;;;;24.53;10.77;;;;;-0.80;103378.00;;;;10024987;29;20205;-79
2023/02/07 08:48:17;;;;;;;17.23;10.90;;;;;-0.50;103382.00;;;;10057936;29;20232;-79
2023/02/07 08:53:19;;;;;;;25.63;11.57;;;;;-0.30;103380.00;;;;10045203;29;20193;-78
2023/02/07 08:58:21;;;;;;;23.73;12.50;;;;;-0.20;103382.00;;;;10028613;29;20249;-79
2023/02/07 09:03:23;;;;;;;19.40;10.00;;;;;0.00;103384.00;;;;10029830;29;20617;-78
2023/02/07 09:08:25;;;;;;;21.60;11.63;;;;;0.20;103391.00;;;;10018480;29;20261;-78
2023/02/07 09:13:27;;;;;;;31.30;12.70;;;;;0.40;103390.00;;;;10022933;29;20205;-79
2023/02/07 09:18:29;;;;;;;28.80;13.97;;;;;0.70;103376.00;;;;10006176;29;20268;-79
2023/02/07 09:23:32;;;;;;;25.30;13.77;;;;;1.00;103361.00;;;;10042157;29;20213;-81
2023/02/07 09:28:34;;;;;;;31.63;14.73;;;;;1.40;103365.00;;;;10016116;29;20596;-77
2023/02/07 09:33:37;;;;;;;30.70;14.73;;;;;1.50;103354.00;;;;10063899;29;20203;-77
2023/02/07 09:38:38;;;;;;;29.37;16.20;;;;;1.60;103356.00;;;;10076687;29;20193;-77
2023/02/07 09:43:50;;;;;;;26.77;15.03;;;;;1.80;103355.00;;;;10042410;29;20212;-77
2023/02/07 09:49:08;;;;;;;29.57;14.73;;;;;2.50;103342.00;;;;10038318;29;20228;-77
2023/02/07 09:54:23;;;;;;;28.30;14.03;;;;;3.00;103343.00;;;;10045888;29;20232;-78
2023/02/07 09:59:37;;;;;;;21.77;12.80;;;;;3.30;103348.00;;;;10008947;29;20679;-78
2023/02/07 10:04:46;;;;;;;28.13;12.03;;;;;3.60;103345.00;;;;10021090;29;20229;-78
2023/02/07 10:09:48;;;;;;;26.07;13.47;;;;;3.80;103350.00;;;;10017005;29;20579;-78
2023/02/07 10:15:40;;;;;;;22.73;10.70;;;;;4.00;103348.00;;;;9970752;29;20212;-78
2023/02/07 10:20:58;;;;;;;22.27;9.97;;;;;4.30;103332.00;;;;9993343;29;20224;-78
2023/02/07 10:26:28;;;;;;;16.20;9.10;;;;;4.50;103334.00;;;;10005978;29;20224;-78
2023/02/07 10:31:35;;;;;;;15.90;8.80;;;;;4.80;103329.00;;;;10012383;29;20245;-78
2023/02/07 10:36:42;;;;;;;16.87;8.77;;;;;5.30;103325.00;;;;10022550;29;20202;-78
2023/02/07 10:41:44;;;;;;;15.70;8.33;;;;;5.70;103312.00;;;;10012230;29;20250;-79
2023/02/07 10:46:54;;;;;;;12.50;7.10;;;;;6.00;103324.00;;;;10020617;29;20205;-79
2023/02/07 10:51:58;;;;;;;12.67;7.27;;;;;6.10;103321.00;;;;10016280;29;20196;-79
2023/02/07 10:57:00;;;;;;;42.23;11.37;;;;;6.30;103312.00;;;;10005300;29;20208;-79
2023/02/07 11:02:30;;;;;;;118.30;18.33;;;;;6.60;103323.00;;;;10025960;29;20279;-79
2023/02/07 11:07:32;;;;;;;37.37;13.77;;;;;7.00;103316.00;;;;10007242;29;20225;-79
2023/02/07 11:12:53;;;;;;;39.83;14.10;;;;;7.30;103327.00;;;;10000746;29;20201;-79
2023/02/07 11:17:56;;;;;;;42.50;14.67;;;;;7.40;103310.00;;;;10027262;29;20724;-79
2023/02/07 11:22:59;;;;;;;40.27;13.77;;;;;7.60;103306.00;;;;10030797;29;20243;-79
2023/02/07 11:28:01;;;;;;;22.77;9.97;;;;;7.60;103308.00;;;;10021054;29;20633;-78
2023/02/07 11:33:09;;;;;;;17.03;9.57;;;;;7.80;103308.00;;;;9990616;29;20206;-80
2023/02/07 11:38:14;;;;;;;13.37;8.37;;;;;8.00;103307.00;;;;10011400;29;20488;-80
2023/02/07 11:43:20;;;;;;;13.20;8.20;;;;;8.20;103298.00;;;;10020673;29;20621;-79
2023/02/07 11:48:30;;;;;;;12.77;7.10;;;;;8.30;103308.00;;;;10008963;29;20194;-79
2023/02/07 11:53:31;;;;;;;11.73;6.60;;;;;8.30;103309.00;;;;10021502;29;20229;-78
2023/02/07 11:58:38;;;;;;;10.10;5.80;;;;;8.30;103302.00;;;;10030148;29;20200;-79
2023/02/07 12:03:44;;;;;;;8.70;5.53;;;;;8.30;103296.00;;;;10014757;29;20245;-78
2023/02/07 12:08:48;;;;;;;9.93;5.23;;;;;8.60;103296.00;;;;10020555;29;20284;-79
2023/02/07 12:13:58;;;;;;;9.43;5.70;;;;;8.70;103308.00;;;;10028497;29;20312;-79
2023/02/07 12:19:09;;;;;;;7.80;5.07;;;;;8.70;103304.00;;;;10047247;29;20241;-77
2023/02/07 12:24:43;;;;;;;7.87;4.87;;;;;8.80;103305.00;;;;10054868;29;20409;-77
2023/02/07 12:30:23;;;;;;;4.40;3.60;;;;;9.10;103310.00;;;;10024246;29;20232;-77
2023/02/07 12:35:42;;;;;;;4.87;3.70;;;;;9.10;103307.00;;;;10021620;29;20217;-76
2023/02/07 12:41:21;;;;;;;6.70;4.40;;;;;9.20;103325.00;;;;10032516;29;20202;-77
2023/02/07 12:46:57;;;;;;;5.77;4.00;;;;;9.30;103309.00;;;;10027827;29;20213;-76
2023/02/07 12:52:17;;;;;;;5.97;4.23;;;;;9.40;103310.00;;;;10018250;29;20235;-77
2023/02/07 12:57:29;;;;;;;8.27;4.67;;;;;9.40;103305.00;;;;10016082;29;20201;-77
2023/02/07 13:03:11;;;;;;;5.73;4.07;;;;;9.50;103294.00;;;;10054022;29;20220;-77
2023/02/07 13:08:16;;;;;;;5.97;4.20;;;;;9.50;103292.00;;;;9994477;29;20213;-77
2023/02/07 13:13:22;;;;;;;5.63;3.93;;;;;9.50;103284.00;;;;10027367;29;20225;-77
2023/02/07 13:19:02;;;;;;;4.77;3.60;;;;;9.70;103284.00;;;;10026146;29;20208;-75
2023/02/07 13:24:07;;;;;;;7.10;3.87;;;;;9.70;103288.00;;;;10009557;29;20229;-77
2023/02/07 13:29:14;;;;;;;7.50;3.77;;;;;9.60;103278.00;;;;10007588;29;20239;-77
2023/02/07 13:34:34;;;;;;;4.53;3.43;;;;;9.60;103277.00;;;;9999686;29;20701;-77
2023/02/07 13:39:51;;;;;;;5.60;4.10;;;;;9.50;103283.00;;;;10013634;29;20292;-77
2023/02/07 13:45:18;;;;;;;6.90;3.67;;;;;9.50;103279.00;;;;9989647;29;20232;-76
2023/02/07 13:50:39;;;;;;;7.23;4.20;;;;;9.20;103279.00;;;;9988186;29;20228;-76
2023/02/07 13:55:42;;;;;;;6.40;4.07;;;;;9.20;103274.00;;;;9984859;29;20652;-76
2023/02/07 14:00:46;;;;;;;4.83;3.63;;;;;9.20;103273.00;;;;10001471;29;20197;-77
2023/02/07 14:05:51;;;;;;;8.30;4.87;;;;;9.00;103265.00;;;;9991029;29;20252;-77
2023/02/07 14:10:56;;;;;;;6.60;4.40;;;;;8.90;103257.00;;;;9999197;29;20312;-77
2023/02/07 14:16:07;;;;;;;8.67;4.97;;;;;9.00;103265.00;;;;10021036;29;20194;-77
2023/02/07 14:21:18;;;;;;;6.20;4.03;;;;;9.50;103261.00;;;;9981067;29;20216;-76
2023/02/07 14:26:39;;;;;;;6.33;4.07;;;;;9.70;103251.00;;;;9968561;29;20707;-76
2023/02/07 14:31:57;;;;;;;7.43;4.43;;;;;11.00;103222.00;;;;9997441;29;20304;-77
2023/02/07 14:37:17;;;;;;;7.03;4.40;;;;;12.10;103223.00;;;;9990371;29;20748;-77
2023/02/07 14:42:21;;;;;;;8.53;4.50;;;;;11.50;103208.00;;;;9972998;29;20218;-76
2023/02/07 14:47:27;;;;;;;7.43;4.70;;;;;11.30;103245.00;;;;9996915;29;20661;-76
2023/02/07 14:52:34;;;;;;;6.90;5.03;;;;;11.30;103210.00;;;;10001697;29;20212;-76
2023/02/07 14:57:55;;;;;;;9.23;4.70;;;;;11.20;103204.00;;;;10013388;29;20217;-76
2023/02/07 15:03:04;;;;;;;9.67;4.80;;;;;11.80;103209.00;;;;9999463;29;20315;-74
2023/02/07 15:08:14;;;;;;;6.73;4.50;;;;;11.50;103227.00;;;;10006895;29;20242;-74
2023/02/07 15:13:22;;;;;;;6.70;4.00;;;;;9.40;103265.00;;;;9973544;29;20202;-74
2023/02/07 15:18:29;;;;;;;8.70;4.87;;;;;7.80;103266.00;;;;9995072;29;20204;-73
2023/02/07 15:23:31;;;;;;;7.97;4.60;;;;;8.90;103219.00;;;;10028340;29;20332;-73
2023/02/07 15:28:34;;;;;;;9.17;5.00;;;;;10.90;103236.00;;;;9994431;29;20318;-74
2023/02/07 15:33:46;;;;;;;8.20;4.93;;;;;10.80;103222.00;;;;9994661;29;20200;-74
2023/02/07 15:38:48;;;;;;;8.53;5.23;;;;;11.30;103217.00;;;;9992818;29;20205;-74
2023/02/07 15:44:06;;;;;;;6.83;4.60;;;;;9.40;103260.00;;;;9991472;29;20233;-73
2023/02/07 15:49:08;;;;;;;7.83;5.23;;;;;8.50;103230.00;;;;9998782;29;20226;-74
2023/02/07 15:54:15;;;;;;;7.23;4.00;;;;;7.30;103253.00;;;;9995919;29;21228;-73
2023/02/07 15:59:21;;;;;;;8.67;4.87;;;;;6.40;103268.00;;;;9996711;29;20285;-73
2023/02/07 16:04:28;;;;;;;5.60;4.00;;;;;5.90;103267.00;;;;10045296;29;20234;-73
2023/02/07 16:09:36;;;;;;;9.33;5.00;;;;;5.50;103266.00;;;;10062976;29;20207;-73
2023/02/07 16:14:39;;;;;;;7.13;4.57;;;;;5.20;103264.00;;;;10047328;29;20205;-73
2023/02/07 16:19:45;;;;;;;8.03;4.53;;;;;4.90;103253.00;;;;10020696;29;20214;-73
2023/02/07 16:24:48;;;;;;;8.20;4.97;;;;;4.60;103246.00;;;;10044506;29;20213;-73
2023/02/07 16:29:52;;;;;;;8.70;5.10;;;;;4.40;103260.00;;;;10043452;29;20734;-73
2023/02/07 16:34:56;;;;;;;6.70;4.67;;;;;4.20;103260.00;;;;10038805;29;20694;-73
2023/02/07 16:40:00;;;;;;;7.40;5.43;;;;;3.90;103264.00;;;;10032309;29;20253;-73
2023/02/07 16:45:03;;;;;;;11.47;7.30;;;;;3.70;103275.00;;;;10037250;29;20215;-73
2023/02/07 16:50:12;;;;;;;10.63;7.83;;;;;3.40;103274.00;;;;10016702;29;20216;-73
2023/02/07 16:55:15;;;;;;;16.57;8.80;;;;;3.20;103271.00;;;;10043400;29;20319;-73
2023/02/07 17:00:21;;;;;;;15.83;8.03;;;;;3.10;103298.00;;;;9984913;29;20273;-73
2023/02/07 17:05:26;;;;;;;9.33;6.33;;;;;2.90;103289.00;;;;9985579;29;20699;-73
2023/02/07 17:10:31;;;;;;;11.93;6.80;;;;;2.70;103292.00;;;;10015570;29;20197;-73
2023/02/07 17:15:34;;;;;;;19.50;8.43;;;;;2.50;103291.00;;;;10015711;29;20198;-73
2023/02/07 17:20:37;;;;;;;15.73;8.80;;;;;2.40;103296.00;;;;9985012;29;20206;-73
2023/02/07 17:25:41;;;;;;;19.03;9.53;;;;;2.30;103299.00;;;;10003272;29;20240;-73
2023/02/07 17:30:45;;;;;;;18.27;9.27;;;;;2.10;103302.00;;;;10022913;29;20676;-73
2023/02/07 17:35:47;;;;;;;21.10;10.90;;;;;1.90;103284.00;;;;10000590;29;20910;-73
2023/02/07 17:40:49;;;;;;;16.57;10.33;;;;;1.70;103293.00;;;;10009686;29;20208;-73
2023/02/07 17:45:50;;;;;;;19.73;11.67;;;;;1.50;103287.00;;;;10091640;29;20212;-73
2023/02/07 17:50:53;;;;;;;22.77;11.77;;;;;1.40;103279.00;;;;10043341;29;20200;-73
2023/02/07 17:55:57;;;;;;;18.13;10.03;;;;;1.30;103281.00;;;;10022247;29;20232;-73
2023/02/07 18:00:59;;;;;;;11.70;7.57;;;;;1.50;103287.00;;;;10022446;29;20189;-73
2023/02/07 18:06:01;;;;;;;12.10;6.30;;;;;1.50;103292.00;;;;10052118;29;20225;-73
2023/02/07 18:11:06;;;;;;;10.87;6.47;;;;;1.50;103290.00;;;;10052240;29;20200;-73
2023/02/07 18:16:11;;;;;;;11.53;7.07;;;;;1.50;103297.00;;;;10051961;29;20185;-73
2023/02/07 18:21:15;;;;;;;12.33;7.07;;;;;1.60;103285.00;;;;10036620;29;20209;-73
2023/02/07 18:26:18;;;;;;;13.50;6.90;;;;;1.70;103284.00;;;;10051389;29;20221;-73
2023/02/07 18:31:22;;;;;;;13.50;7.40;;;;;1.80;103282.00;;;;10048008;29;20201;-73
2023/02/07 18:36:25;;;;;;;14.37;7.20;;;;;1.80;103287.00;;;;9983064;29;20224;-73
2023/02/07 18:41:27;;;;;;;10.33;6.07;;;;;1.70;103299.00;;;;9997968;29;20200;-73
2023/02/07 18:46:31;;;;;;;14.57;6.93;;;;;1.70;103294.00;;;;9982730;29;20194;-73
2023/02/07 18:51:35;;;;;;;11.80;7.03;;;;;1.70;103301.00;;;;9982364;29;20201;-73
2023/02/07 18:56:40;;;;;;;10.83;6.60;;;;;1.70;103310.00;;;;9992618;29;20272;-73
2023/02/07 19:01:42;;;;;;;13.93;7.33;;;;;1.70;103314.00;;;;10020414;29;20223;-73
2023/02/07 19:06:45;;;;;;;11.17;6.57;;;;;1.60;103312.00;;;;10050377;29;20283;-73
2023/02/07 19:11:50;;;;;;;14.77;8.43;;;;;1.30;103318.00;;;;10019932;29;20201;-73
2023/02/07 19:16:54;;;;;;;12.63;8.47;;;;;1.00;103327.00;;;;10035003;29;20203;-73
2023/02/07 19:21:59;;;;;;;13.20;7.93;;;;;0.70;103335.00;;;;10019551;29;20215;-73
2023/02/07 19:27:01;;;;;;;18.67;8.00;;;;;0.40;103324.00;;;;10035405;29;20587;-73
2023/02/07 19:32:06;;;;;;;17.57;8.60;;;;;0.20;103319.00;;;;10034883;29;20257;-73
2023/02/07 19:37:10;;;;;;;15.70;9.23;;;;;0.10;103312.00;;;;10020228;29;20232;-73
2023/02/07 19:42:12;;;;;;;15.50;9.07;;;;;-0.10;103315.00;;;;10050220;29;20209;-73
2023/02/07 19:47:14;;;;;;;13.70;8.27;;;;;-0.20;103312.00;;;;10050384;29;20673;-73
2023/02/07 19:52:17;;;;;;;14.50;8.37;;;;;-0.40;103305.00;;;;10034814;29;20199;-73
2023/02/07 19:57:21;;;;;;;15.47;9.37;;;;;-0.40;103305.00;;;;10004058;29;20209;-73
2023/02/07 20:02:23;;;;;;;19.43;10.53;;;;;-0.50;103297.00;;;;10002207;29;20214;-73
2023/02/07 20:07:25;;;;;;;20.10;10.37;;;;;-0.70;103303.00;;;;10003279;29;20258;-73
2023/02/07 20:12:27;;;;;;;21.37;11.70;;;;;-0.80;103296.00;;;;10000287;29;20198;-73
2023/02/07 20:17:29;;;;;;;19.60;10.90;;;;;-0.90;103298.00;;;;9988180;29;20292;-73
2023/02/07 20:22:32;;;;;;;18.03;9.90;;;;;-1.00;103290.00;;;;10018108;29;20297;-73
2023/02/07 20:27:34;;;;;;;18.43;10.33;;;;;-1.10;103286.00;;;;10035280;29;20711;-73
2023/02/07 20:32:36;;;;;;;17.13;10.47;;;;;-1.20;103278.00;;;;10012626;29;20201;-73
2023/02/07 20:37:38;;;;;;;20.63;10.87;;;;;-1.20;103275.00;;;;10037563;29;20201;-73
2023/02/07 20:42:40;;;;;;;26.07;12.53;;;;;-1.30;103271.00;;;;10040018;29;20610;-73
2023/02/07 20:47:42;;;;;;;19.07;12.33;;;;;-1.40;103253.00;;;;10026777;29;20214;-73
2023/02/07 20:52:44;;;;;;;25.20;12.60;;;;;-1.40;103249.00;;;;10039669;29;20645;-73
2023/02/07 20:57:46;;;;;;;22.47;12.60;;;;;-1.50;103245.00;;;;10038687;29;20269;-73
2023/02/07 21:02:48;;;;;;;25.13;11.47;;;;;-1.60;103237.00;;;;10054787;29;20216;-73
2023/02/07 21:07:50;;;;;;;15.93;10.27;;;;;-1.60;103233.00;;;;10065180;29;20224;-73
2023/02/07 21:12:51;;;;;;;22.63;10.63;;;;;-1.70;103236.00;;;;10076639;29;20189;-73
2023/02/07 21:17:53;;;;;;;17.47;9.63;;;;;-1.70;103237.00;;;;10077014;29;20686;-73
2023/02/07 21:22:55;;;;;;;22.17;10.20;;;;;-1.80;103233.00;;;;10061199;29;20215;-73
2023/02/07 21:27:57;;;;;;;21.80;10.50;;;;;-1.80;103239.00;;;;10039462;29;20229;-73
2023/02/07 21:33:00;;;;;;;20.53;10.33;;;;;-1.70;103236.00;;;;10022545;29;20189;-73
2023/02/07 21:38:02;;;;;;;15.60;9.80;;;;;-1.70;103234.00;;;;10024201;29;20209;-73
2023/02/07 21:43:04;;;;;;;19.13;10.93;;;;;-1.70;103237.00;;;;10008477;29;20204;-73
2023/02/07 21:48:08;;;;;;;23.03;10.50;;;;;-1.80;103234.00;;;;10029299;29;20279;-73
2023/02/07 21:53:10;;;;;;;19.03;9.33;;;;;-2.00;103236.00;;;;9986074;29;20263;-74
2023/02/07 21:58:21;;;;;;;21.97;11.43;;;;;-2.00;103235.00;;;;9986270;29;20729;-73
2023/02/07 22:03:23;;;;;;;16.30;9.30;;;;;-2.10;103230.00;;;;10043288;29;20257;-74
2023/02/07 22:08:25;;;;;;;15.70;9.80;;;;;-2.10;103235.00;;;;10051945;29;20228;-73
2023/02/07 22:13:29;;;;;;;26.00;13.37;;;;;-2.20;103237.00;;;;10067064;29;20597;-73
2023/02/07 22:18:31;;;;;;;23.07;12.70;;;;;-2.30;103229.00;;;;10036098;29;20201;-74
2023/02/07 22:23:36;;;;;;;23.67;13.57;;;;;-2.30;103219.00;;;;10036273;29;20225;-73
2023/02/07 22:28:39;;;;;;;21.50;13.03;;;;;-2.40;103233.00;;;;10035789;29;20232;-73
2023/02/07 22:33:42;;;;;;;24.60;12.33;;;;;-2.40;103234.00;;;;10046301;29;20228;-73
2023/02/07 22:38:44;;;;;;;21.83;12.83;;;;;-2.50;103228.00;;;;9990034;29;20197;-73
2023/02/07 22:43:49;;;;;;;22.03;12.50;;;;;-2.50;103237.00;;;;10001326;29;20213;-73
2023/02/07 22:48:51;;;;;;;27.50;14.67;;;;;-2.50;103237.00;;;;9997763;29;20205;-73
2023/02/07 22:53:58;;;;;;;24.83;12.57;;;;;-2.50;103236.00;;;;10019481;29;20733;-73
2023/02/07 22:59:00;;;;;;;24.00;12.27;;;;;-2.60;103237.00;;;;9997662;29;20874;-73
2023/02/07 23:04:04;;;;;;;20.47;12.10;;;;;-2.60;103233.00;;;;10035887;29;20715;-74
2023/02/07 23:09:09;;;;;;;23.90;13.07;;;;;-2.60;103252.00;;;;10019463;29;20193;-73
2023/02/07 23:14:11;;;;;;;21.33;12.77;;;;;-2.70;103237.00;;;;10000761;29;20675;-73
2023/02/07 23:19:15;;;;;;;21.40;12.17;;;;;-2.70;103238.00;;;;10044455;29;20233;-73
2023/02/07 23:24:17;;;;;;;22.77;12.50;;;;;-2.70;103237.00;;;;10049193;29;20817;-73
2023/02/07 23:29:19;;;;;;;29.93;14.37;;;;;-2.70;103236.00;;;;10041936;29;20257;-73
2023/02/07 23:34:28;;;;;;;29.00;12.97;;;;;-2.70;103230.00;;;;9997801;29;20568;-73
2023/02/07 23:39:30;;;;;;;25.37;12.60;;;;;-2.70;103222.00;;;;10055734;29;20197;-73
2023/02/07 23:44:32;;;;;;;21.57;13.83;;;;;-2.80;103215.00;;;;10051540;29;20217;-73
2023/02/07 23:49:34;;;;;;;25.13;12.57;;;;;-2.80;103216.00;;;;10025627;29;20228;-73
2023/02/07 23:54:36;;;;;;;27.00;13.27;;;;;-2.80;103220.00;;;;10021853;29;20196;-73
2023/02/07 23:59:38;;;;;;;28.33;14.60;;;;;-2.80;103222.00;;;;10014074;29;20222;-73
